Time;durP1;ratioP1;P1;durP2;ratioP2;P2;SDS_P1;SDS_P2;PMS_P1;PMS_P2;Temp;Humidity;BMP_temperature;BMP_pressure;BME280_temperature;BME280_humidity;BME280_pressure;Samples;Min_cycle;Max_cycle;Signal;HPM_P1;HPM_P2
2021/12/19 00:04:19;;;;;;;20.30;7.72;;;7.60;99.90;;;;;;5083001;28;20048;-82
2021/12/19 00:09:30;;;;;;;19.35;8.00;;;7.60;99.90;;;;;;5061548;28;20119;-80
2021/12/19 00:11:57;;;;;;;21.45;9.27;;;7.60;99.90;;;;;;5045155;28;20164;-83
2021/12/19 00:14:23;;;;;;;21.52;9.32;;;7.60;99.90;;;;;;5067113;28;20046;-83
2021/12/19 00:16:54;;;;;;;23.02;10.25;;;7.60;99.90;;;;;;5058446;28;20136;-82
2021/12/19 00:19:19;;;;;;;20.50;8.70;;;7.60;99.90;;;;;;5062711;28;22344;-78
2021/12/19 00:21:46;;;;;;;19.08;9.07;;;7.60;99.90;;;;;;5061580;28;20047;-84
2021/12/19 00:24:12;;;;;;;21.33;6.25;;;7.60;99.90;;;;;;5063894;28;20162;-82
2021/12/19 00:26:37;;;;;;;16.20;7.32;;;7.60;99.90;;;;;;5048051;28;20121;-83
2021/12/19 00:29:05;;;;;;;14.80;7.50;;;7.60;99.90;;;;;;5060338;28;20127;-79
2021/12/19 00:31:31;;;;;;;13.52;5.68;;;7.60;99.90;;;;;;5080549;28;20126;-80
2021/12/19 00:33:58;;;;;;;13.07;4.68;;;7.70;99.90;;;;;;5064073;28;20337;-81
2021/12/19 00:36:24;;;;;;;11.75;5.18;;;7.60;99.90;;;;;;5063550;28;20060;-79
2021/12/19 00:38:50;;;;;;;9.65;2.88;;;7.70;99.90;;;;;;5042780;28;20373;-83
2021/12/19 00:41:16;;;;;;;6.93;3.17;;;7.60;99.90;;;;;;5048002;28;20052;-82
2021/12/19 00:43:47;;;;;;;5.45;1.98;;;8.00;99.90;;;;;;5063668;28;20414;-82
2021/12/19 00:46:15;;;;;;;5.55;2.42;;;7.60;99.90;;;;;;5067138;28;20058;-82
2021/12/19 00:48:47;;;;;;;5.93;2.03;;;7.60;99.90;;;;;;5046001;28;20047;-80
2021/12/19 00:51:17;;;;;;;7.32;1.83;;;7.60;99.90;;;;;;5064766;28;20040;-84
2021/12/19 00:53:44;;;;;;;6.40;1.70;;;7.60;99.90;;;;;;5071775;28;20047;-84
2021/12/19 00:56:11;;;;;;;5.35;1.75;;;7.50;99.90;;;;;;5065561;28;20048;-81
2021/12/19 00:58:38;;;;;;;4.78;1.60;;;7.50;99.90;;;;;;5048261;28;20509;-80
2021/12/19 01:01:06;;;;;;;7.35;1.83;;;7.50;99.90;;;;;;5086429;28;20074;-83
2021/12/19 01:03:33;;;;;;;2.97;1.65;;;7.50;99.90;;;;;;5081538;28;20040;-80
2021/12/19 01:05:59;;;;;;;4.90;1.65;;;7.40;99.90;;;;;;5066004;28;20075;-80
2021/12/19 01:08:25;;;;;;;5.57;1.50;;;7.40;99.90;;;;;;5067799;28;20040;-83
2021/12/19 01:10:51;;;;;;;4.68;1.60;;;7.40;99.90;;;;;;5057250;28;20047;-79
2021/12/19 01:13:18;;;;;;;3.20;2.60;;;7.40;99.90;;;;;;5073616;28;20118;-80
2021/12/19 01:15:44;;;;;;;6.85;3.28;;;7.40;99.90;;;;;;5076872;28;20325;-83
2021/12/19 01:18:10;;;;;;;6.80;4.05;;;7.40;99.90;;;;;;5072041;28;20062;-83
2021/12/19 01:20:38;;;;;;;7.82;3.83;;;8.00;99.90;;;;;;5063909;28;20049;-79
2021/12/19 01:23:06;;;;;;;4.25;2.65;;;7.00;99.90;;;;;;5065090;28;20045;-83
2021/12/19 01:25:32;;;;;;;6.50;1.90;;;7.50;99.90;;;;;;5044142;28;20029;-81
2021/12/19 01:27:58;;;;;;;9.38;2.80;;;8.10;99.90;;;;;;5064336;28;20039;-82
2021/12/19 01:30:24;;;;;;;7.75;2.85;;;7.30;99.90;;;;;;5062222;28;20095;-80
2021/12/19 01:32:50;;;;;;;6.63;2.10;;;7.30;99.90;;;;;;5085796;28;20131;-80
2021/12/19 01:35:18;;;;;;;4.72;1.60;;;7.60;99.90;;;;;;5065580;28;20151;-82
2021/12/19 01:37:44;;;;;;;2.63;1.98;;;7.30;99.90;;;;;;5067285;28;20033;-81
2021/12/19 01:40:13;;;;;;;3.45;1.10;;;7.30;99.90;;;;;;5066086;28;22171;-82
2021/12/19 01:42:42;;;;;;;2.42;0.98;;;7.40;99.90;;;;;;5044422;28;20039;-81
2021/12/19 01:45:10;;;;;;;3.35;1.10;;;7.70;99.90;;;;;;5064852;28;20076;-80
2021/12/19 01:47:36;;;;;;;2.45;0.98;;;7.40;99.90;;;;;;5049224;28;20052;-80
2021/12/19 01:50:04;;;;;;;2.00;1.23;;;7.30;99.90;;;;;;5064864;28;20182;-80
2021/12/19 01:52:30;;;;;;;2.38;1.02;;;7.30;99.90;;;;;;5067145;28;20048;-82
2021/12/19 01:54:57;;;;;;;4.13;1.00;;;7.30;99.90;;;;;;5049580;28;20051;-82
2021/12/19 01:57:25;;;;;;;3.33;1.10;;;7.30;99.90;;;;;;5065602;28;20043;-81
2021/12/19 01:59:52;;;;;;;1.63;0.90;;;7.40;99.90;;;;;;5051164;28;20459;-82
2021/12/19 02:02:17;;;;;;;2.28;0.63;;;7.40;99.90;;;;;;5065148;28;20051;-79
2021/12/19 02:04:43;;;;;;;4.22;1.20;;;7.40;99.90;;;;;;5067980;28;20032;-82
2021/12/19 02:07:10;;;;;;;3.38;0.98;;;7.30;99.90;;;;;;5043998;28;20169;-83
2021/12/19 02:09:36;;;;;;;2.50;1.10;;;7.40;99.90;;;;;;5049624;28;20055;-80
2021/12/19 02:12:03;;;;;;;6.00;1.63;;;7.40;99.90;;;;;;5068271;28;20134;-81
2021/12/19 02:14:29;;;;;;;5.07;1.60;;;7.40;99.90;;;;;;5048890;28;20036;-81
2021/12/19 02:16:55;;;;;;;6.65;1.83;;;7.40;99.90;;;;;;5060593;28;20055;-80
2021/12/19 02:19:24;;;;;;;6.50;1.75;;;7.40;99.90;;;;;;5067095;28;20489;-84
2021/12/19 02:21:50;;;;;;;10.45;2.20;;;7.30;99.90;;;;;;5046458;28;20060;-80
2021/12/19 02:24:15;;;;;;;3.13;1.40;;;7.30;99.90;;;;;;5062086;28;20090;-81
2021/12/19 02:26:41;;;;;;;5.05;1.15;;;7.70;99.90;;;;;;5040769;28;20387;-79
2021/12/19 02:29:07;;;;;;;3.83;1.00;;;7.30;99.90;;;;;;5062885;28;20043;-81
2021/12/19 02:31:34;;;;;;;7.75;2.03;;;7.80;99.90;;;;;;5066022;28;20047;-81
2021/12/19 02:34:06;;;;;;;2.63;1.25;;;7.20;99.90;;;;;;5062277;28;20063;-81
2021/12/19 02:50:26;;;;;;;6.38;1.52;;;7.20;99.90;;;;;;5063125;28;20527;-83
2021/12/19 02:52:52;;;;;;;5.18;1.42;;;7.00;99.90;;;;;;5063406;28;20501;-80
2021/12/19 02:55:19;;;;;;;6.25;1.40;;;7.00;99.90;;;;;;5044994;28;20096;-80
2021/12/19 02:57:47;;;;;;;7.45;1.80;;;6.90;99.90;;;;;;5049371;28;20031;-82
2021/12/19 03:00:32;;;;;;;8.10;3.10;;;6.90;99.90;;;;;;5053379;28;20105;-84
2021/12/19 03:02:58;;;;;;;8.15;1.80;;;6.90;99.90;;;;;;5085492;28;20039;-82
2021/12/19 03:05:24;;;;;;;10.43;2.47;;;6.90;99.90;;;;;;5047732;28;20040;-83
2021/12/19 03:07:51;;;;;;;3.95;1.58;;;6.90;99.90;;;;;;5065724;28;20062;-79
2021/12/19 03:10:57;;;;;;;6.32;2.17;;;6.90;99.90;;;;;;5062575;28;20126;-82
2021/12/19 03:13:28;;;;;;;4.78;2.30;;;7.00;99.90;;;;;;5078246;28;20558;-82
2021/12/19 03:18:40;;;;;;;3.25;1.58;;;6.90;99.90;;;;;;5104666;28;20096;-82
2021/12/19 03:21:12;;;;;;;6.05;2.08;;;6.90;99.90;;;;;;5092645;28;20058;-82
2021/12/19 03:23:38;;;;;;;9.63;3.10;;;6.80;99.90;;;;;;5068907;28;20044;-80
2021/12/19 03:26:04;;;;;;;7.35;2.42;;;6.80;99.90;;;;;;5065785;28;20046;-80
2021/12/19 03:28:31;;;;;;;2.53;1.00;;;7.10;99.90;;;;;;5089490;28;20052;-81
2021/12/19 03:30:57;;;;;;;3.40;1.15;;;6.90;99.90;;;;;;5097620;28;20048;-81
2021/12/19 03:33:23;;;;;;;5.88;1.33;;;6.90;99.90;;;;;;5061525;28;20041;-81
2021/12/19 03:35:49;;;;;;;4.63;1.75;;;7.20;99.90;;;;;;5062659;28;20043;-80
2021/12/19 03:38:15;;;;;;;12.95;3.15;;;6.80;99.90;;;;;;5063225;28;20041;-79
2021/12/19 03:40:50;;;;;;;7.38;3.20;;;6.80;99.90;;;;;;5064545;28;20105;-80
2021/12/19 03:43:17;;;;;;;;;;;6.80;99.90;;;;;;5062044;28;20564;-82
2021/12/19 03:45:45;;;;;;;12.57;3.47;;;7.00;99.90;;;;;;5063584;28;19924;-79
2021/12/19 03:48:12;;;;;;;12.05;4.30;;;6.90;99.90;;;;;;5065206;28;20035;-82
2021/12/19 03:50:44;;;;;;;7.45;3.78;;;6.90;99.90;;;;;;5047585;28;20106;-81
2021/12/19 03:53:14;;;;;;;10.43;2.88;;;6.90;99.90;;;;;;5066200;28;20047;-83
2021/12/19 03:55:41;;;;;;;9.80;2.90;;;7.00;99.90;;;;;;5060890;28;20044;-79
2021/12/19 03:58:07;;;;;;;9.00;2.03;;;6.90;99.90;;;;;;5065845;28;20443;-82
2021/12/19 04:00:33;;;;;;;13.25;2.00;;;6.90;99.90;;;;;;5067657;28;20068;-79
2021/12/19 04:03:04;;;;;;;8.40;2.22;;;7.00;99.90;;;;;;5084104;28;20068;-79
2021/12/19 04:05:31;;;;;;;6.28;1.30;;;6.90;99.90;;;;;;5053456;28;20047;-81
2021/12/19 04:07:57;;;;;;;8.25;1.40;;;7.00;99.90;;;;;;5065931;28;20075;-80
2021/12/19 04:10:24;;;;;;;13.13;1.92;;;7.00;99.90;;;;;;5066401;28;20060;-79
2021/12/19 04:12:50;;;;;;;13.38;2.00;;;7.00;99.90;;;;;;5064349;28;20580;-81
2021/12/19 04:15:56;;;;;;;7.00;2.55;;;7.00;99.90;;;;;;5078832;28;20052;-81
2021/12/19 04:18:22;;;;;;;17.73;3.08;;;7.10;99.90;;;;;;5081920;28;20032;-81
2021/12/19 04:20:48;;;;;;;18.17;3.90;;;7.10;99.90;;;;;;5068572;28;20040;-79
2021/12/19 04:23:14;;;;;;;20.75;5.13;;;7.10;99.90;;;;;;5060691;28;20064;-80
2021/12/19 04:25:40;;;;;;;21.00;4.88;;;7.10;99.90;;;;;;5063281;28;20047;-80
2021/12/19 04:28:07;;;;;;;14.07;3.63;;;7.10;99.90;;;;;;5044223;28;20146;-82
2021/12/19 04:30:33;;;;;;;12.50;2.80;;;7.70;99.90;;;;;;5047901;28;20063;-79
2021/12/19 04:33:05;;;;;;;16.98;3.47;;;7.20;99.90;;;;;;5066760;28;20048;-82
2021/12/19 04:35:34;;;;;;;16.48;4.25;;;7.20;99.90;;;;;;5084062;28;20069;-80
2021/12/19 04:41:40;;;;;;;17.60;5.93;;;7.20;99.90;;;;;;5068180;28;20055;-81
2021/12/19 04:51:56;;;;;;;33.08;6.40;;;7.40;99.90;;;;;;5064386;28;20050;-82
2021/12/19 04:59:50;;;;;;;29.63;6.00;;;7.40;99.90;;;;;;5051670;28;20076;-80
2021/12/19 05:02:28;;;;;;;21.33;5.80;;;7.30;99.90;;;;;;5046554;28;20052;-83
2021/12/19 05:05:22;;;;;;;19.75;6.43;;;7.30;99.90;;;;;;5069130;28;20040;-79
2021/12/19 05:16:02;;;;;;;25.15;7.82;;;7.30;99.90;;;;;;5007140;28;20073;-82
2021/12/19 05:18:31;;;;;;;23.85;7.43;;;7.30;99.90;;;;;;4991748;28;20473;-81
2021/12/19 05:21:01;;;;;;;18.98;6.85;;;7.40;99.90;;;;;;5010844;28;20053;-82
2021/12/19 05:25:56;;;;;;;19.15;6.45;;;7.30;99.90;;;;;;5014482;28;20050;-81
2021/12/19 05:28:22;;;;;;;28.23;8.73;;;7.30;99.90;;;;;;4993736;28;20084;-80
2021/12/19 05:30:48;;;;;;;25.58;7.90;;;7.30;99.90;;;;;;5026326;28;20087;-81
2021/12/19 05:33:14;;;;;;;24.45;7.30;;;7.30;99.90;;;;;;5018772;28;20148;-80
2021/12/19 05:36:05;;;;;;;26.58;8.07;;;7.30;99.90;;;;;;4994630;28;20170;-82
2021/12/19 05:46:44;;;;;;;34.25;10.00;;;8.00;99.90;;;;;;5044907;28;20052;-83
2021/12/19 05:49:10;;;;;;;27.48;8.40;;;7.30;99.90;;;;;;5027922;28;20051;-83
2021/12/19 05:51:37;;;;;;;36.83;10.32;;;7.30;99.90;;;;;;5038245;28;20090;-83
2021/12/19 05:54:04;;;;;;;32.90;8.65;;;7.30;99.90;;;;;;5065475;28;20082;-82
2021/12/19 05:56:31;;;;;;;24.15;8.13;;;7.20;99.90;;;;;;5066909;28;20074;-81
2021/12/19 05:58:57;;;;;;;26.13;7.80;;;7.30;99.90;;;;;;5047116;28;20188;-84
2021/12/19 06:01:23;;;;;;;23.80;7.95;;;7.30;99.90;;;;;;5067157;28;20463;-80
2021/12/19 06:03:49;;;;;;;22.25;6.32;;;7.20;99.90;;;;;;5067183;28;20036;-81
2021/12/19 06:06:15;;;;;;;28.00;7.80;;;7.20;99.90;;;;;;5068611;28;20044;-84
2021/12/19 06:08:41;;;;;;;18.33;6.50;;;7.20;99.90;;;;;;5068393;28;20042;-80
2021/12/19 06:11:08;;;;;;;27.17;7.60;;;7.20;99.90;;;;;;5062930;28;20040;-82
2021/12/19 06:13:34;;;;;;;27.58;7.97;;;7.70;99.90;;;;;;5066373;28;20036;-82
2021/12/19 06:16:00;;;;;;;30.70;6.85;;;7.30;99.90;;;;;;5067151;28;20372;-83
2021/12/19 06:18:26;;;;;;;29.25;7.13;;;7.30;99.90;;;;;;5070787;28;20155;-81
2021/12/19 06:20:51;;;;;;;29.38;7.40;;;7.30;99.90;;;;;;5041471;28;20554;-82
2021/12/19 06:23:17;;;;;;;32.70;7.55;;;7.30;99.90;;;;;;5048458;28;20032;-83
2021/12/19 06:25:46;;;;;;;24.42;7.28;;;7.30;99.90;;;;;;5043097;28;20059;-81
2021/12/19 06:28:18;;;;;;;23.63;7.38;;;7.30;99.90;;;;;;5044768;28;20067;-90
2021/12/19 06:30:45;;;;;;;25.80;7.50;;;7.30;99.90;;;;;;5040623;28;20503;-81
2021/12/19 06:33:11;;;;;;;27.85;6.80;;;7.30;99.90;;;;;;5047496;28;20051;-79
2021/12/19 06:35:37;;;;;;;28.35;5.38;;;7.30;99.90;;;;;;5048038;28;20028;-81
2021/12/19 06:38:03;;;;;;;25.10;6.03;;;7.20;99.90;;;;;;5045034;28;20047;-81
2021/12/19 06:40:30;;;;;;;24.23;5.72;;;7.20;99.90;;;;;;5062252;28;20170;-81
2021/12/19 06:42:56;;;;;;;31.25;6.38;;;7.20;99.90;;;;;;5063776;28;20086;-80
2021/12/19 06:45:22;;;;;;;12.95;3.88;;;7.60;99.90;;;;;;5046103;28;20060;-78
2021/12/19 06:47:48;;;;;;;15.15;3.35;;;7.20;99.90;;;;;;5047291;28;20459;-81
2021/12/19 06:50:16;;;;;;;16.00;3.40;;;7.20;99.90;;;;;;5067265;28;20048;-80
2021/12/19 06:52:42;;;;;;;11.18;3.20;;;7.20;99.90;;;;;;5064873;28;20077;-81
2021/12/19 06:55:10;;;;;;;18.33;3.60;;;7.20;99.90;;;;;;5068877;28;20101;-80
2021/12/19 06:57:36;;;;;;;13.57;3.72;;;7.20;99.90;;;;;;5067013;28;20040;-82
2021/12/19 07:00:05;;;;;;;16.08;3.80;;;7.20;99.90;;;;;;5055337;28;20048;-80
2021/12/19 07:02:54;;;;;;;20.38;4.15;;;7.30;99.90;;;;;;5049855;28;20509;-79
2021/12/19 07:05:20;;;;;;;12.73;4.95;;;7.30;99.90;;;;;;5067826;28;20126;-82
2021/12/19 07:07:45;;;;;;;19.38;5.00;;;7.30;99.90;;;;;;5071016;28;20127;-81
2021/12/19 07:10:11;;;;;;;15.55;4.30;;;8.00;99.90;;;;;;5052695;28;20052;-79
2021/12/19 07:12:37;;;;;;;19.48;4.40;;;7.30;99.90;;;;;;5063260;28;20517;-80
2021/12/19 07:15:05;;;;;;;15.38;4.28;;;7.60;99.90;;;;;;5049319;28;20479;-81
2021/12/19 07:17:30;;;;;;;12.23;3.63;;;7.30;99.90;;;;;;5069753;28;20136;-80
2021/12/19 07:19:56;;;;;;;18.23;4.20;;;7.30;99.90;;;;;;5063749;28;20078;-79
2021/12/19 07:22:22;;;;;;;20.75;4.72;;;7.30;99.90;;;;;;5066833;28;20403;-81
2021/12/19 07:24:48;;;;;;;19.73;4.50;;;7.30;99.90;;;;;;5067750;28;20051;-82
2021/12/19 07:27:14;;;;;;;19.17;4.43;;;7.30;99.90;;;;;;5066123;28;20391;-79
2021/12/19 07:29:43;;;;;;;13.60;3.53;;;7.80;99.90;;;;;;5064384;28;20055;-82
2021/12/19 07:32:12;;;;;;;22.38;3.97;;;7.60;99.90;;;;;;5044190;28;20146;-81
2021/12/19 07:34:38;;;;;;;16.83;4.35;;;7.60;99.90;;;;;;5063589;28;20161;-81
2021/12/19 07:37:32;;;;;;;15.60;2.88;;;8.00;99.90;;;;;;5068220;28;20039;-81
2021/12/19 07:42:59;;;;;;;16.00;3.72;;;7.30;99.90;;;;;;5058587;28;20871;-80
2021/12/19 07:45:25;;;;;;;19.80;4.32;;;7.40;99.90;;;;;;5066763;28;20150;-81
2021/12/19 07:48:35;;;;;;;14.20;3.25;;;8.10;99.90;;;;;;5066900;28;20135;-81
2021/12/19 07:51:48;;;;;;;15.13;2.97;;;7.40;99.90;;;;;;4968008;28;20050;-82
2021/12/19 07:56:06;;;;;;;23.05;3.88;;;7.90;99.90;;;;;;4915021;28;21366;-81
2021/12/19 07:59:25;;;;;;;26.50;3.67;;;7.80;99.90;;;;;;4816827;29;20046;-81
2021/12/19 08:02:19;;;;;;;17.73;3.40;;;7.40;99.90;;;;;;4779839;29;20067;-81
2021/12/19 08:08:22;;;;;;;24.58;4.10;;;7.40;99.90;;;;;;4771208;30;20159;-81
2021/12/19 08:13:52;;;;;;;24.38;4.60;;;8.10;99.90;;;;;;4784277;29;20108;-80
2021/12/19 08:16:41;;;;;;;28.85;4.68;;;7.40;99.90;;;;;;4784707;29;20056;-81
2021/12/19 08:20:00;;;;;;;21.23;4.53;;;7.40;99.90;;;;;;4785077;29;20903;-81
2021/12/19 08:22:27;;;;;;;19.95;3.88;;;7.40;99.90;;;;;;4728681;30;20040;-79
2021/12/19 08:24:54;;;;;;;19.35;3.50;;;8.20;99.90;;;;;;4697555;30;20143;-82
2021/12/19 08:27:39;;;;;;;22.85;4.60;;;7.30;99.90;;;;;;5113230;27;20405;-77
2021/12/19 08:30:07;;;;;;;26.42;3.90;;;7.30;99.90;;;;;;5064472;28;20456;-77
2021/12/19 08:32:34;;;;;;;28.42;3.67;;;7.40;99.90;;;;;;5069529;28;20488;-80
2021/12/19 08:34:59;;;;;;;16.60;3.25;;;7.40;99.90;;;;;;5080424;28;20037;-78
2021/12/19 08:37:28;;;;;;;19.55;3.83;;;7.40;99.90;;;;;;5101545;28;20091;-81
2021/12/19 08:39:56;;;;;;;23.17;3.65;;;7.40;99.90;;;;;;5101914;28;20037;-82
2021/12/19 08:42:23;;;;;;;33.13;5.00;;;7.70;99.90;;;;;;5059270;28;20045;-77
2021/12/19 08:44:52;;;;;;;28.85;5.32;;;7.50;99.90;;;;;;5082629;28;20464;-79
2021/12/19 08:47:29;;;;;;;24.30;4.97;;;7.40;99.90;;;;;;5108438;28;20106;-81
2021/12/19 08:50:49;;;;;;;23.85;4.05;;;7.60;99.90;;;;;;5080085;28;20080;-81
2021/12/19 08:53:25;;;;;;;19.60;4.25;;;7.80;99.90;;;;;;5027613;28;20044;-81
2021/12/19 08:55:51;;;;;;;29.70;4.35;;;7.50;99.90;;;;;;5014123;28;20037;-81
2021/12/19 08:58:17;;;;;;;25.60;3.88;;;8.10;99.90;;;;;;5027976;28;20497;-79
2021/12/19 09:01:06;;;;;;;22.15;3.72;;;7.50;99.90;;;;;;5017570;28;20105;-85
2021/12/19 09:03:32;;;;;;;23.88;3.97;;;7.50;99.90;;;;;;5001670;28;20425;-85
2021/12/19 09:05:59;;;;;;;21.05;3.22;;;7.50;99.90;;;;;;4974370;28;20166;-83
2021/12/19 09:08:25;;;;;;;18.75;4.18;;;7.50;99.90;;;;;;4944483;28;20053;-85
2021/12/19 09:10:51;;;;;;;26.52;3.45;;;7.50;99.90;;;;;;4967481;28;20043;-84
2021/12/19 09:13:17;;;;;;;19.42;4.15;;;7.60;99.90;;;;;;4963738;28;20097;-80
2021/12/19 09:15:42;;;;;;;25.40;4.35;;;7.50;99.90;;;;;;4966426;28;20050;-81
2021/12/19 09:18:08;;;;;;;27.70;6.30;;;7.50;99.90;;;;;;4952761;28;20133;-81
2021/12/19 09:20:34;;;;;;;28.73;7.13;;;7.50;99.90;;;;;;4975121;28;20387;-81
2021/12/19 09:23:00;;;;;;;27.83;8.02;;;7.60;99.90;;;;;;4953469;28;20094;-80
2021/12/19 09:25:25;;;;;;;27.92;5.22;;;7.70;99.90;;;;;;4964411;28;20065;-82
2021/12/19 09:28:38;;;;;;;24.38;4.30;;;8.20;99.90;;;;;;4965141;28;20056;-85
2021/12/19 09:35:04;;;;;;;30.70;5.22;;;7.20;99.90;;;;;;4958155;28;20029;-84
2021/12/19 09:37:30;;;;;;;21.63;4.55;;;7.60;99.90;;;;;;4941766;28;20055;-84
2021/12/19 09:39:56;;;;;;;23.20;4.32;;;8.10;99.90;;;;;;4939250;28;20061;-85
2021/12/19 09:42:32;;;;;;;25.52;3.78;;;8.40;99.90;;;;;;4979169;28;20045;-81
2021/12/19 09:45:00;;;;;;;21.13;3.55;;;7.60;99.90;;;;;;4975341;28;20074;-80
2021/12/19 09:47:25;;;;;;;19.30;3.35;;;7.80;99.90;;;;;;4972472;28;20050;-82
2021/12/19 09:49:51;;;;;;;21.30;3.70;;;7.70;99.90;;;;;;4972536;28;20512;-84
2021/12/19 09:52:17;;;;;;;17.05;2.80;;;8.20;99.90;;;;;;4965404;28;20054;-86
2021/12/19 09:54:48;;;;;;;12.35;2.60;;;8.10;99.90;;;;;;4981265;28;20050;-86
2021/12/19 10:05:11;;;;;;;21.23;3.15;;;7.70;99.90;;;;;;4943785;29;20129;-87
2021/12/19 10:07:49;;;;;;;21.13;3.05;;;7.70;99.90;;;;;;4944327;28;20056;-82
2021/12/19 10:10:24;;;;;;;19.90;3.13;;;7.70;99.90;;;;;;5007285;28;20107;-86
2021/12/19 10:13:35;;;;;;;17.75;3.65;;;7.70;99.90;;;;;;5024453;28;20076;-80
2021/12/19 10:16:01;;;;;;;16.25;2.53;;;7.50;99.90;;;;;;4935340;28;20046;-83
2021/12/19 10:18:27;;;;;;;22.92;3.55;;;7.70;99.90;;;;;;4955690;28;20054;-83
2021/12/19 10:20:59;;;;;;;15.68;2.30;;;7.70;99.90;;;;;;4954878;28;20047;-83
2021/12/19 10:23:35;;;;;;;18.80;3.15;;;8.50;99.90;;;;;;4938846;28;20050;-83
2021/12/19 10:26:11;;;;;;;19.35;3.10;;;7.70;99.90;;;;;;4953286;28;20049;-83
2021/12/19 10:28:51;;;;;;;15.52;2.50;;;7.70;99.90;;;;;;4937399;28;20039;-86
2021/12/19 10:31:17;;;;;;;12.55;2.10;;;7.70;99.90;;;;;;4951600;28;20042;-83
2021/12/19 10:34:22;;;;;;;24.27;2.95;;;8.40;99.90;;;;;;4951959;28;20043;-84
2021/12/19 10:37:02;;;;;;;21.73;2.70;;;7.80;99.90;;;;;;4908495;29;20048;-81
2021/12/19 10:39:36;;;;;;;22.48;2.88;;;8.20;99.90;;;;;;4879602;29;20056;-82
2021/12/19 10:42:02;;;;;;;15.82;2.55;;;8.50;99.90;;;;;;4895745;29;20063;-82
2021/12/19 10:47:21;;;;;;;14.32;2.20;;;7.90;99.90;;;;;;4915450;29;20099;-83
2021/12/19 10:49:46;;;;;;;21.73;3.00;;;7.80;99.90;;;;;;4895916;29;20056;-87
2021/12/19 10:52:12;;;;;;;23.10;2.97;;;8.10;99.90;;;;;;4928962;29;20182;-85
2021/12/19 10:54:56;;;;;;;24.48;3.00;;;7.80;99.90;;;;;;4940922;28;20393;-84
2021/12/19 10:57:32;;;;;;;16.77;3.85;;;8.00;99.90;;;;;;4917740;29;20153;-84
2021/12/19 10:59:58;;;;;;;17.77;3.55;;;8.20;99.90;;;;;;4918167;28;20051;-85
2021/12/19 11:03:13;;;;;;;20.52;2.88;;;7.90;99.90;;;;;;4938956;28;20114;-83
2021/12/19 11:05:41;;;;;;;21.95;3.20;;;7.50;99.90;;;;;;4938703;28;20105;-85
2021/12/19 11:08:09;;;;;;;22.45;4.20;;;8.10;99.90;;;;;;4994973;28;20120;-84
2021/12/19 11:10:37;;;;;;;18.77;3.03;;;8.10;99.90;;;;;;5028707;28;20049;-83
2021/12/19 11:13:10;;;;;;;19.98;3.47;;;9.00;99.90;;;;;;5038766;28;20529;-80
2021/12/19 11:15:36;;;;;;;25.15;3.60;;;8.10;99.90;;;;;;5047576;28;20071;-82
2021/12/19 11:18:03;;;;;;;26.13;4.15;;;8.20;99.90;;;;;;5046672;28;20037;-81
2021/12/19 11:20:29;;;;;;;25.35;3.47;;;8.90;99.90;;;;;;5044509;28;20136;-82
2021/12/19 11:22:55;;;;;;;22.58;3.70;;;8.20;99.90;;;;;;5065870;28;20468;-81
2021/12/19 11:25:21;;;;;;;19.92;3.28;;;7.60;99.90;;;;;;5015988;28;20124;-82
2021/12/19 11:27:47;;;;;;;26.38;3.90;;;8.50;99.90;;;;;;5050501;28;20083;-82
2021/12/19 11:30:14;;;;;;;31.50;4.47;;;8.10;99.90;;;;;;5063687;28;20047;-82
2021/12/19 11:33:28;;;;;;;18.58;3.78;;;8.30;99.90;;;;;;5029349;28;20121;-82
2021/12/19 11:35:57;;;;;;;17.25;2.95;;;8.20;99.90;;;;;;5013561;28;20436;-84
2021/12/19 11:38:53;;;;;;;26.23;4.03;;;9.10;99.90;;;;;;4991719;28;20052;-84
2021/12/19 12:15:02;;;;;;;23.25;3.67;;;8.40;99.90;;;;;;4887228;29;20039;-88
2021/12/19 12:17:40;;;;;;;33.63;4.63;;;8.50;99.90;;;;;;4886330;29;20092;-83
2021/12/19 12:20:16;;;;;;;25.08;3.35;;;8.50;99.90;;;;;;4937659;28;20058;-83
2021/12/19 12:22:57;;;;;;;27.27;4.10;;;8.50;99.90;;;;;;5010708;28;20111;-83
2021/12/19 12:25:28;;;;;;;22.30;3.30;;;8.50;99.90;;;;;;4993948;28;20474;-86
2021/12/19 12:28:04;;;;;;;20.90;3.42;;;8.50;99.90;;;;;;4991312;28;20054;-89
2021/12/19 12:30:37;;;;;;;15.20;2.70;;;8.60;99.90;;;;;;5012047;28;20120;-85
2021/12/19 12:33:26;;;;;;;19.33;3.05;;;8.50;99.90;;;;;;5010773;28;20528;-85
2021/12/19 12:35:54;;;;;;;19.85;3.20;;;8.60;99.90;;;;;;5024531;28;20060;-85
2021/12/19 12:38:20;;;;;;;14.90;2.33;;;8.50;99.90;;;;;;4977773;28;20065;-87
2021/12/19 12:41:05;;;;;;;21.38;2.95;;;8.50;99.90;;;;;;5010394;28;20045;-89
2021/12/19 12:43:35;;;;;;;26.13;3.65;;;9.10;99.90;;;;;;5013842;28;20049;-86
2021/12/19 12:46:16;;;;;;;23.45;3.45;;;8.40;99.90;;;;;;5022714;28;20140;-90
2021/12/19 12:49:17;;;;;;;20.55;3.33;;;8.40;99.90;;;;;;5038956;28;20875;-89
2021/12/19 12:51:45;;;;;;;15.15;2.63;;;8.40;99.90;;;;;;5073393;28;20041;-86
2021/12/19 12:54:13;;;;;;;20.33;3.03;;;8.40;99.90;;;;;;5050330;28;20053;-86
2021/12/19 12:56:44;;;;;;;19.88;2.85;;;8.30;99.90;;;;;;5043098;28;20179;-84
2021/12/19 12:59:11;;;;;;;21.85;2.92;;;8.30;99.90;;;;;;5037994;28;20041;-83
2021/12/19 13:01:49;;;;;;;18.40;2.95;;;8.30;99.90;;;;;;5012859;28;20056;-84
2021/12/19 13:04:21;;;;;;;25.13;4.78;;;8.30;99.90;;;;;;5065712;28;20053;-87
2021/12/19 13:06:55;;;;;;;28.13;5.50;;;8.30;99.90;;;;;;5049408;28;20113;-84
2021/12/19 13:09:42;;;;;;;25.83;3.30;;;8.30;99.90;;;;;;5047749;28;20125;-86
2021/12/19 13:12:19;;;;;;;17.52;2.75;;;8.30;99.90;;;;;;5035798;28;20400;-88
2021/12/19 13:14:58;;;;;;;15.95;2.70;;;8.30;99.90;;;;;;5054305;28;20041;-84
2021/12/19 13:17:32;;;;;;;19.95;2.53;;;8.30;99.90;;;;;;5078907;28;20472;-86
2021/12/19 13:19:58;;;;;;;23.77;2.78;;;8.30;99.90;;;;;;5080956;28;20062;-87
2021/12/19 13:22:25;;;;;;;20.10;2.90;;;8.30;99.90;;;;;;5054409;28;20053;-87
2021/12/19 13:24:54;;;;;;;22.35;3.10;;;8.40;99.90;;;;;;5019972;28;20045;-86
2021/12/19 13:27:27;;;;;;;24.50;3.35;;;8.40;99.90;;;;;;5049700;28;20508;-86
2021/12/19 13:30:06;;;;;;;20.83;3.42;;;8.30;99.90;;;;;;5076189;28;20041;-86
2021/12/19 13:33:07;;;;;;;25.02;3.63;;;8.40;99.90;;;;;;5040688;28;20076;-83
2021/12/19 13:35:40;;;;;;;27.73;3.97;;;8.70;99.90;;;;;;4969970;28;20054;-86
2021/12/19 13:38:09;;;;;;;27.17;4.03;;;8.40;99.90;;;;;;4989704;28;20046;-87
2021/12/19 13:40:36;;;;;;;29.10;4.45;;;8.50;99.90;;;;;;4977516;28;20145;-90
2021/12/19 13:43:06;;;;;;;23.35;2.95;;;8.50;99.90;;;;;;4966882;28;20051;-85
2021/12/19 13:45:51;;;;;;;25.75;3.15;;;8.80;99.90;;;;;;4953661;28;20145;-90
2021/12/19 13:48:21;;;;;;;29.60;4.38;;;9.20;99.90;;;;;;4962592;28;20074;-86
2021/12/19 13:51:15;;;;;;;16.25;2.90;;;8.30;99.90;;;;;;4956061;28;20450;-91
2021/12/19 13:53:45;;;;;;;24.83;4.15;;;8.50;99.90;;;;;;4968208;28;20157;-81
2021/12/19 13:56:29;;;;;;;34.35;4.38;;;8.50;99.90;;;;;;4971248;28;20119;-83
2021/12/19 13:58:57;;;;;;;20.25;3.28;;;8.40;99.90;;;;;;4967111;28;20058;-82
2021/12/19 14:01:28;;;;;;;18.02;2.72;;;8.40;99.90;;;;;;4955325;28;20054;-83
2021/12/19 14:03:57;;;;;;;19.83;2.47;;;8.50;99.90;;;;;;4971741;28;20059;-84
2021/12/19 14:06:32;;;;;;;17.70;2.20;;;8.40;99.90;;;;;;4968645;28;20114;-86
2021/12/19 14:09:07;;;;;;;17.10;1.80;;;8.20;99.90;;;;;;4970248;28;20038;-84
2021/12/19 14:11:35;;;;;;;15.18;2.35;;;8.20;99.90;;;;;;5004653;28;20941;-84
2021/12/19 14:14:04;;;;;;;19.13;2.15;;;8.50;99.90;;;;;;5022868;28;20072;-82
2021/12/19 14:16:33;;;;;;;18.50;2.58;;;8.20;99.90;;;;;;5037044;28;20054;-79
2021/12/19 14:22:30;;;;;;;14.57;1.70;;;8.00;99.90;;;;;;5029855;28;20045;-86
2021/12/19 14:25:01;;;;;;;12.02;2.03;;;8.00;99.90;;;;;;5029831;28;20393;-87
2021/12/19 14:27:41;;;;;;;13.47;1.80;;;8.00;99.90;;;;;;5052106;28;20281;-84
2021/12/19 14:30:16;;;;;;;15.00;2.30;;;8.00;99.90;;;;;;5055621;28;20291;-83
2021/12/19 14:32:55;;;;;;;7.20;1.20;;;8.20;99.90;;;;;;5072726;28;20038;-84
2021/12/19 14:35:36;;;;;;;9.90;2.13;;;8.00;99.90;;;;;;5020202;28;20046;-84
2021/12/19 14:42:29;;;;;;;5.13;0.93;;;8.30;99.90;;;;;;5003600;28;20037;-84
2021/12/19 14:45:00;;;;;;;15.85;1.98;;;8.00;99.90;;;;;;4970474;28;20100;-86
2021/12/19 14:47:42;;;;;;;10.80;1.45;;;8.70;99.90;;;;;;4977754;28;20362;-84
2021/12/19 14:50:14;;;;;;;10.55;1.27;;;7.80;99.90;;;;;;4970324;28;20103;-86
2021/12/19 14:52:59;;;;;;;13.63;1.92;;;7.80;99.90;;;;;;4961628;28;20475;-82
2021/12/19 14:55:27;;;;;;;11.90;2.00;;;7.80;99.90;;;;;;4975633;28;20038;-82
2021/12/19 14:57:53;;;;;;;10.85;1.20;;;8.50;99.90;;;;;;4985367;28;20051;-82
2021/12/19 15:00:19;;;;;;;9.93;1.45;;;7.80;99.90;;;;;;4972712;28;20054;-87
2021/12/19 15:02:45;;;;;;;17.38;1.83;;;8.70;99.90;;;;;;4966373;28;20069;-84
2021/12/19 15:05:11;;;;;;;14.15;1.73;;;7.80;99.90;;;;;;4990179;28;20096;-87
2021/12/19 15:07:44;;;;;;;10.18;1.83;;;7.80;99.90;;;;;;4952162;28;20530;-88
2021/12/19 15:10:15;;;;;;;12.10;1.63;;;7.80;99.90;;;;;;4955162;28;20454;-85
2021/12/19 15:12:44;;;;;;;16.15;1.70;;;7.80;99.90;;;;;;4963373;28;20069;-84
2021/12/19 15:15:11;;;;;;;7.63;1.40;;;8.30;99.90;;;;;;4976921;28;20041;-84
2021/12/19 15:17:37;;;;;;;15.30;1.70;;;8.70;99.90;;;;;;4960247;28;20081;-83